University Place, Nebraska
Current Conditions -  °F | °C
As of 9:54 PM on Tuesday 21 Oct 2014 (Local Time) from KLNK Reporting Station
Clear Clear  
Wind Chill: 62°   Ceiling: Unl
Heat Index: 62°   Visibility: 10mi
Dew Point: 40°   Wind: 10mph
Humidity: 44%   Direction: 140°SE
Pressure: 30.05"   Gusts: NA
Location:  40.8517°N, 96.6591°W
Report Text: KLNK 220254Z 14009KT 10SM CLR 17/04 A3005 RMK AO2 SLP173 T01670044 51010
Loading
Personal Weather Stations






























Interactive Weather Map
Tropical Storm Tracking
New forecast layout! Learn more

10-Day Weather Forecast

Advertisements
Track Severe Weather on mobile